sensor_id;sensor_type;location;lat;lon;timestamp;temperature;humidity
67182;DHT22;54114;53.524;49.396;2023-04-03T00:00:39;7.10;56.80
67182;DHT22;54114;53.524;49.396;2023-04-03T00:03:10;7.10;56.80
67182;DHT22;54114;53.524;49.396;2023-04-03T00:05:47;7.10;56.40
67182;DHT22;54114;53.524;49.396;2023-04-03T00:08:18;7.00;56.20
67182;DHT22;54114;53.524;49.396;2023-04-03T00:10:48;6.90;56.40
67182;DHT22;54114;53.524;49.396;2023-04-03T00:13:16;6.90;56.20
67182;DHT22;54114;53.524;49.396;2023-04-03T00:15:48;6.80;56.40
67182;DHT22;54114;53.524;49.396;2023-04-03T00:18:19;6.70;56.50
67182;DHT22;54114;53.524;49.396;2023-04-03T00:20:51;6.60;56.80
67182;DHT22;54114;53.524;49.396;2023-04-03T00:23:20;6.50;57.20
67182;DHT22;54114;53.524;49.396;2023-04-03T00:25:49;6.40;57.10
67182;DHT22;54114;53.524;49.396;2023-04-03T00:28:16;6.20;57.40
67182;DHT22;54114;53.524;49.396;2023-04-03T00:30:43;6.20;57.90
67182;DHT22;54114;53.524;49.396;2023-04-03T00:33:17;6.20;57.80
67182;DHT22;54114;53.524;49.396;2023-04-03T00:35:49;6.10;58.40
67182;DHT22;54114;53.524;49.396;2023-04-03T00:38:18;6.00;58.00
67182;DHT22;54114;53.524;49.396;2023-04-03T00:40:48;6.00;58.50
67182;DHT22;54114;53.524;49.396;2023-04-03T00:43:26;5.90;58.30
67182;DHT22;54114;53.524;49.396;2023-04-03T00:45:58;5.90;58.80
67182;DHT22;54114;53.524;49.396;2023-04-03T00:48:42;5.90;58.50
67182;DHT22;54114;53.524;49.396;2023-04-03T00:51:28;5.80;58.30
67182;DHT22;54114;53.524;49.396;2023-04-03T00:54:00;5.80;58.90
67182;DHT22;54114;53.524;49.396;2023-04-03T00:56:33;5.80;58.90
67182;DHT22;54114;53.524;49.396;2023-04-03T00:59:08;5.60;58.90
67182;DHT22;54114;53.524;49.396;2023-04-03T01:01:40;5.60;58.90
67182;DHT22;54114;53.524;49.396;2023-04-03T01:07:05;5.50;59.60
67182;DHT22;54114;53.524;49.396;2023-04-03T01:09:42;5.40;59.10
67182;DHT22;54114;53.524;49.396;2023-04-03T01:14:48;5.30;59.10
67182;DHT22;54114;53.524;49.396;2023-04-03T01:17:37;5.30;59.80
67182;DHT22;54114;53.524;49.396;2023-04-03T01:25:54;5.40;60.20
67182;DHT22;54114;53.524;49.396;2023-04-03T01:28:34;5.50;60.30
67182;DHT22;54114;53.524;49.396;2023-04-03T01:34:18;5.50;60.10
67182;DHT22;54114;53.524;49.396;2023-04-03T01:36:48;5.60;59.60
67182;DHT22;54114;53.524;49.396;2023-04-03T01:39:18;5.70;60.10
67182;DHT22;54114;53.524;49.396;2023-04-03T01:41:50;5.70;60.40
67182;DHT22;54114;53.524;49.396;2023-04-03T01:44:27;5.70;60.00
67182;DHT22;54114;53.524;49.396;2023-04-03T01:47:01;5.80;59.90
67182;DHT22;54114;53.524;49.396;2023-04-03T01:49:33;5.80;60.10
67182;DHT22;54114;53.524;49.396;2023-04-03T01:52:02;5.90;60.20
67182;DHT22;54114;53.524;49.396;2023-04-03T01:54:31;5.90;59.90
67182;DHT22;54114;53.524;49.396;2023-04-03T01:57:00;5.90;60.20
67182;DHT22;54114;53.524;49.396;2023-04-03T01:59:30;5.90;59.90
67182;DHT22;54114;53.524;49.396;2023-04-03T02:01:59;6.00;60.30
67182;DHT22;54114;53.524;49.396;2023-04-03T02:04:28;6.00;60.40
67182;DHT22;54114;53.524;49.396;2023-04-03T02:07:04;6.10;60.50
67182;DHT22;54114;53.524;49.396;2023-04-03T02:09:35;6.20;60.30
67182;DHT22;54114;53.524;49.396;2023-04-03T02:12:07;6.20;60.20
67182;DHT22;54114;53.524;49.396;2023-04-03T02:14:38;6.30;60.10
67182;DHT22;54114;53.524;49.396;2023-04-03T02:17:05;6.40;59.90
67182;DHT22;54114;53.524;49.396;2023-04-03T02:19:39;6.40;59.90
67182;DHT22;54114;53.524;49.396;2023-04-03T02:22:08;6.50;60.00
67182;DHT22;54114;53.524;49.396;2023-04-03T02:24:37;6.50;59.60
67182;DHT22;54114;53.524;49.396;2023-04-03T02:27:09;6.60;59.50
67182;DHT22;54114;53.524;49.396;2023-04-03T02:29:38;6.60;59.20
67182;DHT22;54114;53.524;49.396;2023-04-03T02:32:07;6.60;59.20
67182;DHT22;54114;53.524;49.396;2023-04-03T02:34:34;6.70;59.20
67182;DHT22;54114;53.524;49.396;2023-04-03T02:37:05;6.70;58.90
67182;DHT22;54114;53.524;49.396;2023-04-03T02:39:32;6.70;59.00
67182;DHT22;54114;53.524;49.396;2023-04-03T02:42:01;6.70;59.10
67182;DHT22;54114;53.524;49.396;2023-04-03T02:44:27;6.70;59.10
67182;DHT22;54114;53.524;49.396;2023-04-03T02:46:56;6.70;59.00
67182;DHT22;54114;53.524;49.396;2023-04-03T02:49:23;6.70;59.10
67182;DHT22;54114;53.524;49.396;2023-04-03T02:51:50;6.80;59.20
67182;DHT22;54114;53.524;49.396;2023-04-03T02:54:17;6.80;59.00
67182;DHT22;54114;53.524;49.396;2023-04-03T02:56:43;6.90;59.20
67182;DHT22;54114;53.524;49.396;2023-04-03T02:59:12;6.90;59.10
67182;DHT22;54114;53.524;49.396;2023-04-03T03:01:40;7.00;59.10
67182;DHT22;54114;53.524;49.396;2023-04-03T03:04:06;7.10;59.00
67182;DHT22;54114;53.524;49.396;2023-04-03T03:06:33;7.20;58.90
67182;DHT22;54114;53.524;49.396;2023-04-03T03:09:00;7.20;58.70
67182;DHT22;54114;53.524;49.396;2023-04-03T03:11:26;7.30;58.50
67182;DHT22;54114;53.524;49.396;2023-04-03T03:13:56;7.40;58.30
67182;DHT22;54114;53.524;49.396;2023-04-03T03:16:23;7.60;58.00
67182;DHT22;54114;53.524;49.396;2023-04-03T03:18:49;7.70;57.70
67182;DHT22;54114;53.524;49.396;2023-04-03T03:21:18;7.90;57.30
67182;DHT22;54114;53.524;49.396;2023-04-03T03:23:45;8.00;56.90
67182;DHT22;54114;53.524;49.396;2023-04-03T03:26:12;8.20;56.40
67182;DHT22;54114;53.524;49.396;2023-04-03T03:28:39;8.40;55.90
67182;DHT22;54114;53.524;49.396;2023-04-03T03:31:08;8.60;55.40
67182;DHT22;54114;53.524;49.396;2023-04-03T03:33:38;8.70;55.00
67182;DHT22;54114;53.524;49.396;2023-04-03T03:36:05;8.90;54.60
67182;DHT22;54114;53.524;49.396;2023-04-03T03:38:32;9.20;54.10
67182;DHT22;54114;53.524;49.396;2023-04-03T03:40:59;9.40;53.50
67182;DHT22;54114;53.524;49.396;2023-04-03T03:43:27;9.60;53.00
67182;DHT22;54114;53.524;49.396;2023-04-03T03:45:54;9.80;52.40
67182;DHT22;54114;53.524;49.396;2023-04-03T03:48:22;10.10;51.70
67182;DHT22;54114;53.524;49.396;2023-04-03T03:50:49;10.30;51.20
67182;DHT22;54114;53.524;49.396;2023-04-03T03:53:16;10.50;50.60
67182;DHT22;54114;53.524;49.396;2023-04-03T03:55:43;10.70;49.90
67182;DHT22;54114;53.524;49.396;2023-04-03T03:58:10;10.90;49.00
67182;DHT22;54114;53.524;49.396;2023-04-03T04:00:37;11.10;48.70
67182;DHT22;54114;53.524;49.396;2023-04-03T04:03:03;11.30;48.20
67182;DHT22;54114;53.524;49.396;2023-04-03T04:05:31;11.60;47.50
67182;DHT22;54114;53.524;49.396;2023-04-03T04:07:57;11.80;46.70
67182;DHT22;54114;53.524;49.396;2023-04-03T04:10:26;12.00;46.00
67182;DHT22;54114;53.524;49.396;2023-04-03T04:12:53;12.30;45.50
67182;DHT22;54114;53.524;49.396;2023-04-03T04:15:19;12.50;45.00
67182;DHT22;54114;53.524;49.396;2023-04-03T04:17:47;12.70;44.60
67182;DHT22;54114;53.524;49.396;2023-04-03T04:20:14;13.00;44.20
67182;DHT22;54114;53.524;49.396;2023-04-03T04:22:41;13.30;43.60
67182;DHT22;54114;53.524;49.396;2023-04-03T04:25:08;13.60;42.70
67182;DHT22;54114;53.524;49.396;2023-04-03T04:27:35;13.90;41.70
67182;DHT22;54114;53.524;49.396;2023-04-03T04:30:03;14.30;41.00
67182;DHT22;54114;53.524;49.396;2023-04-03T04:32:31;14.60;40.40
67182;DHT22;54114;53.524;49.396;2023-04-03T04:34:57;14.90;39.90
67182;DHT22;54114;53.524;49.396;2023-04-03T04:37:24;15.10;39.00
67182;DHT22;54114;53.524;49.396;2023-04-03T04:39:51;15.40;38.50
67182;DHT22;54114;53.524;49.396;2023-04-03T04:42:17;15.70;37.30
67182;DHT22;54114;53.524;49.396;2023-04-03T04:44:44;15.90;37.10
67182;DHT22;54114;53.524;49.396;2023-04-03T04:47:11;16.20;36.90
67182;DHT22;54114;53.524;49.396;2023-04-03T04:49:37;16.50;36.30
67182;DHT22;54114;53.524;49.396;2023-04-03T04:52:04;16.80;35.50
67182;DHT22;54114;53.524;49.396;2023-04-03T04:54:32;17.10;34.90
67182;DHT22;54114;53.524;49.396;2023-04-03T04:56:58;17.40;34.60
67182;DHT22;54114;53.524;49.396;2023-04-03T04:59:25;17.60;34.10
67182;DHT22;54114;53.524;49.396;2023-04-03T05:01:55;17.90;33.60
67182;DHT22;54114;53.524;49.396;2023-04-03T05:04:22;18.10;33.10
67182;DHT22;54114;53.524;49.396;2023-04-03T05:06:48;18.40;32.70
67182;DHT22;54114;53.524;49.396;2023-04-03T05:09:17;18.70;32.10
67182;DHT22;54114;53.524;49.396;2023-04-03T05:11:46;18.90;31.50
67182;DHT22;54114;53.524;49.396;2023-04-03T05:14:12;19.10;31.00
67182;DHT22;54114;53.524;49.396;2023-04-03T05:16:39;19.40;30.50
67182;DHT22;54114;53.524;49.396;2023-04-03T05:19:06;19.60;29.80
67182;DHT22;54114;53.524;49.396;2023-04-03T05:21:32;19.80;29.80
67182;DHT22;54114;53.524;49.396;2023-04-03T05:24:00;20.10;29.80
67182;DHT22;54114;53.524;49.396;2023-04-03T05:26:31;20.30;29.60
67182;DHT22;54114;53.524;49.396;2023-04-03T05:28:58;20.50;29.20
67182;DHT22;54114;53.524;49.396;2023-04-03T05:31:25;20.80;29.00
67182;DHT22;54114;53.524;49.396;2023-04-03T05:33:55;21.10;28.50
67182;DHT22;54114;53.524;49.396;2023-04-03T05:36:24;21.30;28.20
67182;DHT22;54114;53.524;49.396;2023-04-03T05:38:52;21.50;28.10
67182;DHT22;54114;53.524;49.396;2023-04-03T05:41:22;21.80;28.10
67182;DHT22;54114;53.524;49.396;2023-04-03T05:43:49;22.10;27.50
67182;DHT22;54114;53.524;49.396;2023-04-03T05:46:18;22.40;27.50
67182;DHT22;54114;53.524;49.396;2023-04-03T05:48:46;22.50;27.10
67182;DHT22;54114;53.524;49.396;2023-04-03T05:51:22;22.70;26.60
67182;DHT22;54114;53.524;49.396;2023-04-03T05:54:12;22.80;26.40
67182;DHT22;54114;53.524;49.396;2023-04-03T05:56:45;23.00;26.30
67182;DHT22;54114;53.524;49.396;2023-04-03T05:59:11;23.30;26.20
67182;DHT22;54114;53.524;49.396;2023-04-03T06:01:38;23.50;26.00
67182;DHT22;54114;53.524;49.396;2023-04-03T06:04:05;23.80;25.60
67182;DHT22;54114;53.524;49.396;2023-04-03T06:07:08;23.90;25.20
67182;DHT22;54114;53.524;49.396;2023-04-03T06:09:37;24.10;25.20
67182;DHT22;54114;53.524;49.396;2023-04-03T06:12:04;24.30;25.00
67182;DHT22;54114;53.524;49.396;2023-04-03T06:14:31;24.40;25.00
67182;DHT22;54114;53.524;49.396;2023-04-03T06:16:58;24.70;24.80
67182;DHT22;54114;53.524;49.396;2023-04-03T06:19:26;24.90;24.70
67182;DHT22;54114;53.524;49.396;2023-04-03T06:21:52;25.10;24.60
67182;DHT22;54114;53.524;49.396;2023-04-03T06:24:19;25.20;24.30
67182;DHT22;54114;53.524;49.396;2023-04-03T06:26:48;25.30;24.10
67182;DHT22;54114;53.524;49.396;2023-04-03T06:29:18;25.40;24.20
67182;DHT22;54114;53.524;49.396;2023-04-03T06:31:49;25.50;24.10
67182;DHT22;54114;53.524;49.396;2023-04-03T06:34:16;25.80;24.00
67182;DHT22;54114;53.524;49.396;2023-04-03T06:36:44;26.00;23.80
67182;DHT22;54114;53.524;49.396;2023-04-03T06:39:21;26.30;23.70
67182;DHT22;54114;53.524;49.396;2023-04-03T06:41:51;26.50;23.60
67182;DHT22;54114;53.524;49.396;2023-04-03T06:44:18;26.70;23.40
67182;DHT22;54114;53.524;49.396;2023-04-03T06:46:45;27.00;23.30
67182;DHT22;54114;53.524;49.396;2023-04-03T06:49:13;27.20;22.90
67182;DHT22;54114;53.524;49.396;2023-04-03T06:51:40;27.40;22.70
67182;DHT22;54114;53.524;49.396;2023-04-03T06:54:07;27.60;22.60
67182;DHT22;54114;53.524;49.396;2023-04-03T06:56:34;27.70;22.40
67182;DHT22;54114;53.524;49.396;2023-04-03T06:59:00;27.80;22.30
67182;DHT22;54114;53.524;49.396;2023-04-03T07:01:29;27.90;22.30
67182;DHT22;54114;53.524;49.396;2023-04-03T07:03:59;28.10;22.10
67182;DHT22;54114;53.524;49.396;2023-04-03T07:06:26;28.30;22.00
67182;DHT22;54114;53.524;49.396;2023-04-03T07:08:53;28.60;21.70
67182;DHT22;54114;53.524;49.396;2023-04-03T07:11:20;28.70;21.50
67182;DHT22;54114;53.524;49.396;2023-04-03T07:13:48;28.70;20.80
67182;DHT22;54114;53.524;49.396;2023-04-03T07:16:15;28.80;20.80
67182;DHT22;54114;53.524;49.396;2023-04-03T07:18:46;28.90;20.60
67182;DHT22;54114;53.524;49.396;2023-04-03T07:21:13;29.00;20.70
67182;DHT22;54114;53.524;49.396;2023-04-03T07:23:40;29.20;20.40
67182;DHT22;54114;53.524;49.396;2023-04-03T07:26:07;29.40;20.20
67182;DHT22;54114;53.524;49.396;2023-04-03T07:28:34;29.50;20.10
67182;DHT22;54114;53.524;49.396;2023-04-03T07:31:03;29.70;20.10
67182;DHT22;54114;53.524;49.396;2023-04-03T07:33:34;29.80;20.10
67182;DHT22;54114;53.524;49.396;2023-04-03T07:36:02;30.10;20.20
67182;DHT22;54114;53.524;49.396;2023-04-03T07:38:29;30.30;20.00
67182;DHT22;54114;53.524;49.396;2023-04-03T07:40:56;30.40;19.80
67182;DHT22;54114;53.524;49.396;2023-04-03T07:43:23;30.50;19.70
67182;DHT22;54114;53.524;49.396;2023-04-03T07:45:51;30.80;19.70
67182;DHT22;54114;53.524;49.396;2023-04-03T07:48:19;30.90;19.60
67182;DHT22;54114;53.524;49.396;2023-04-03T07:50:47;30.90;19.60
67182;DHT22;54114;53.524;49.396;2023-04-03T07:53:14;31.10;19.40
67182;DHT22;54114;53.524;49.396;2023-04-03T07:55:41;31.20;19.20
67182;DHT22;54114;53.524;49.396;2023-04-03T07:58:16;31.40;18.90
67182;DHT22;54114;53.524;49.396;2023-04-03T08:00:43;31.40;18.80
67182;DHT22;54114;53.524;49.396;2023-04-03T08:03:13;31.60;18.60
67182;DHT22;54114;53.524;49.396;2023-04-03T08:05:45;31.70;18.40
67182;DHT22;54114;53.524;49.396;2023-04-03T08:08:15;31.70;18.50
67182;DHT22;54114;53.524;49.396;2023-04-03T08:10:49;31.80;18.20
67182;DHT22;54114;53.524;49.396;2023-04-03T08:13:17;31.80;17.90
67182;DHT22;54114;53.524;49.396;2023-04-03T08:15:45;31.90;17.80
67182;DHT22;54114;53.524;49.396;2023-04-03T08:18:13;32.10;17.90
67182;DHT22;54114;53.524;49.396;2023-04-03T08:20:41;32.10;17.90
67182;DHT22;54114;53.524;49.396;2023-04-03T08:23:10;32.10;17.70
67182;DHT22;54114;53.524;49.396;2023-04-03T08:25:46;32.10;17.60
67182;DHT22;54114;53.524;49.396;2023-04-03T08:28:20;32.20;17.70
67182;DHT22;54114;53.524;49.396;2023-04-03T08:30:49;32.40;17.70
67182;DHT22;54114;53.524;49.396;2023-04-03T08:33:18;32.50;17.70
67182;DHT22;54114;53.524;49.396;2023-04-03T08:35:48;32.50;17.50
67182;DHT22;54114;53.524;49.396;2023-04-03T08:38:15;32.60;17.50
67182;DHT22;54114;53.524;49.396;2023-04-03T08:40:42;32.50;17.10
67182;DHT22;54114;53.524;49.396;2023-04-03T08:46:06;32.40;17.30
67182;DHT22;54114;53.524;49.396;2023-04-03T08:48:42;32.40;17.20
67182;DHT22;54114;53.524;49.396;2023-04-03T08:51:19;32.30;17.10
67182;DHT22;54114;53.524;49.396;2023-04-03T08:53:58;32.10;17.30
67182;DHT22;54114;53.524;49.396;2023-04-03T08:56:28;32.10;17.30
67182;DHT22;54114;53.524;49.396;2023-04-03T08:58:59;32.20;17.30
67182;DHT22;54114;53.524;49.396;2023-04-03T09:01:37;32.20;17.00
67182;DHT22;54114;53.524;49.396;2023-04-03T09:04:12;32.10;17.00
67182;DHT22;54114;53.524;49.396;2023-04-03T09:06:43;32.10;17.00
67182;DHT22;54114;53.524;49.396;2023-04-03T09:09:15;32.10;16.90
67182;DHT22;54114;53.524;49.396;2023-04-03T09:12:34;32.00;16.80
67182;DHT22;54114;53.524;49.396;2023-04-03T09:15:20;31.80;16.70
67182;DHT22;54114;53.524;49.396;2023-04-03T09:18:43;31.90;16.60
67182;DHT22;54114;53.524;49.396;2023-04-03T09:23:51;32.00;16.90
67182;DHT22;54114;53.524;49.396;2023-04-03T09:26:24;32.10;17.30
67182;DHT22;54114;53.524;49.396;2023-04-03T09:28:59;32.20;16.80
67182;DHT22;54114;53.524;49.396;2023-04-03T09:31:40;32.30;16.80
67182;DHT22;54114;53.524;49.396;2023-04-03T09:34:32;32.30;16.50
67182;DHT22;54114;53.524;49.396;2023-04-03T09:37:04;32.40;16.70
67182;DHT22;54114;53.524;49.396;2023-04-03T09:39:52;32.30;16.30
67182;DHT22;54114;53.524;49.396;2023-04-03T09:42:23;32.30;16.60
67182;DHT22;54114;53.524;49.396;2023-04-03T09:45:02;32.20;16.20
67182;DHT22;54114;53.524;49.396;2023-04-03T09:47:35;32.00;16.10
67182;DHT22;54114;53.524;49.396;2023-04-03T09:52:42;31.70;16.30
67182;DHT22;54114;53.524;49.396;2023-04-03T09:57:58;31.50;16.20
67182;DHT22;54114;53.524;49.396;2023-04-03T10:00:37;31.60;16.00
67182;DHT22;54114;53.524;49.396;2023-04-03T10:03:33;31.40;16.20
67182;DHT22;54114;53.524;49.396;2023-04-03T10:06:02;31.40;16.10
67182;DHT22;54114;53.524;49.396;2023-04-03T10:08:41;31.20;16.00
67182;DHT22;54114;53.524;49.396;2023-04-03T10:11:16;31.20;15.90
67182;DHT22;54114;53.524;49.396;2023-04-03T10:13:56;31.20;16.00
67182;DHT22;54114;53.524;49.396;2023-04-03T10:16:41;31.50;16.20
67182;DHT22;54114;53.524;49.396;2023-04-03T10:22:25;31.70;15.50
67182;DHT22;54114;53.524;49.396;2023-04-03T10:25:07;31.80;15.60
67182;DHT22;54114;53.524;49.396;2023-04-03T10:27:47;32.00;15.70
67182;DHT22;54114;53.524;49.396;2023-04-03T10:33:11;31.80;15.70
67182;DHT22;54114;53.524;49.396;2023-04-03T10:36:05;31.70;15.80
67182;DHT22;54114;53.524;49.396;2023-04-03T10:38:51;31.70;15.70
67182;DHT22;54114;53.524;49.396;2023-04-03T10:47:27;31.60;15.80
67182;DHT22;54114;53.524;49.396;2023-04-03T10:52:57;31.30;15.80
67182;DHT22;54114;53.524;49.396;2023-04-03T11:02:06;30.90;16.30
67182;DHT22;54114;53.524;49.396;2023-04-03T11:04:40;30.90;16.40
67182;DHT22;54114;53.524;49.396;2023-04-03T11:07:17;30.80;16.50
67182;DHT22;54114;53.524;49.396;2023-04-03T11:09:52;30.70;16.70
67182;DHT22;54114;53.524;49.396;2023-04-03T11:12:40;30.50;16.80
67182;DHT22;54114;53.524;49.396;2023-04-03T11:15:17;30.20;17.10
67182;DHT22;54114;53.524;49.396;2023-04-03T11:18:10;29.90;17.20
67182;DHT22;54114;53.524;49.396;2023-04-03T11:20:44;29.50;17.30
67182;DHT22;54114;53.524;49.396;2023-04-03T11:23:37;29.20;17.60
67182;DHT22;54114;53.524;49.396;2023-04-03T11:26:13;29.20;17.60
67182;DHT22;54114;53.524;49.396;2023-04-03T11:28:42;29.20;17.70
67182;DHT22;54114;53.524;49.396;2023-04-03T11:39:58;28.70;17.80
67182;DHT22;54114;53.524;49.396;2023-04-03T11:42:37;28.80;17.90
67182;DHT22;54114;53.524;49.396;2023-04-03T11:45:25;28.80;17.80
67182;DHT22;54114;53.524;49.396;2023-04-03T11:48:09;28.70;17.90
67182;DHT22;54114;53.524;49.396;2023-04-03T11:50:56;28.60;18.10
67182;DHT22;54114;53.524;49.396;2023-04-03T11:53:34;28.60;18.10
67182;DHT22;54114;53.524;49.396;2023-04-03T12:01:44;28.80;18.10
67182;DHT22;54114;53.524;49.396;2023-04-03T12:04:21;28.90;18.10
67182;DHT22;54114;53.524;49.396;2023-04-03T12:11:52;28.60;18.30
67182;DHT22;54114;53.524;49.396;2023-04-03T12:14:22;28.70;18.30
67182;DHT22;54114;53.524;49.396;2023-04-03T12:16:57;28.80;18.30
67182;DHT22;54114;53.524;49.396;2023-04-03T12:19:36;28.80;18.30
67182;DHT22;54114;53.524;49.396;2023-04-03T12:22:11;28.90;18.30
67182;DHT22;54114;53.524;49.396;2023-04-03T12:24:42;28.90;18.20
67182;DHT22;54114;53.524;49.396;2023-04-03T12:27:33;28.90;18.30
67182;DHT22;54114;53.524;49.396;2023-04-03T12:30:18;28.90;18.40
67182;DHT22;54114;53.524;49.396;2023-04-03T12:33:14;28.90;18.30
67182;DHT22;54114;53.524;49.396;2023-04-03T12:38:53;28.30;18.40
67182;DHT22;54114;53.524;49.396;2023-04-03T12:46:53;27.80;18.60
67182;DHT22;54114;53.524;49.396;2023-04-03T12:51:58;27.60;18.60
67182;DHT22;54114;53.524;49.396;2023-04-03T12:54:37;27.60;18.50
67182;DHT22;54114;53.524;49.396;2023-04-03T12:57:25;27.40;18.40
67182;DHT22;54114;53.524;49.396;2023-04-03T12:59:56;27.40;18.60
67182;DHT22;54114;53.524;49.396;2023-04-03T13:02:32;27.30;19.10
67182;DHT22;54114;53.524;49.396;2023-04-03T13:05:09;27.30;18.60
67182;DHT22;54114;53.524;49.396;2023-04-03T13:07:43;27.20;18.60
67182;DHT22;54114;53.524;49.396;2023-04-03T13:10:14;27.00;18.70
67182;DHT22;54114;53.524;49.396;2023-04-03T13:17:55;26.80;18.70
67182;DHT22;54114;53.524;49.396;2023-04-03T13:20:31;26.60;18.70
67182;DHT22;54114;53.524;49.396;2023-04-03T13:23:05;26.40;18.90
67182;DHT22;54114;53.524;49.396;2023-04-03T13:25:37;26.30;19.00
67182;DHT22;54114;53.524;49.396;2023-04-03T13:28:09;26.20;19.10
67182;DHT22;54114;53.524;49.396;2023-04-03T13:31:06;26.10;19.10
67182;DHT22;54114;53.524;49.396;2023-04-03T13:33:35;26.10;19.20
67182;DHT22;54114;53.524;49.396;2023-04-03T13:36:21;25.90;19.20
67182;DHT22;54114;53.524;49.396;2023-04-03T13:41:54;25.70;19.40
67182;DHT22;54114;53.524;49.396;2023-04-03T13:46:49;25.40;19.30
67182;DHT22;54114;53.524;49.396;2023-04-03T13:51:52;25.20;19.40
67182;DHT22;54114;53.524;49.396;2023-04-03T13:57:10;25.00;19.50
67182;DHT22;54114;53.524;49.396;2023-04-03T13:59:39;24.90;19.60
67182;DHT22;54114;53.524;49.396;2023-04-03T14:02:32;24.90;19.60
67182;DHT22;54114;53.524;49.396;2023-04-03T14:05:05;24.70;19.70
67182;DHT22;54114;53.524;49.396;2023-04-03T14:07:34;24.60;19.70
67182;DHT22;54114;53.524;49.396;2023-04-03T14:10:01;24.50;19.80
67182;DHT22;54114;53.524;49.396;2023-04-03T14:12:34;24.40;19.90
67182;DHT22;54114;53.524;49.396;2023-04-03T14:15:30;24.30;19.90
67182;DHT22;54114;53.524;49.396;2023-04-03T14:17:58;24.30;20.00
67182;DHT22;54114;53.524;49.396;2023-04-03T14:20:26;24.20;20.00
67182;DHT22;54114;53.524;49.396;2023-04-03T14:22:56;24.20;20.00
67182;DHT22;54114;53.524;49.396;2023-04-03T14:25:23;24.20;20.00
67182;DHT22;54114;53.524;49.396;2023-04-03T14:27:51;24.20;20.00
67182;DHT22;54114;53.524;49.396;2023-04-03T14:30:28;24.20;20.00
67182;DHT22;54114;53.524;49.396;2023-04-03T14:32:56;24.20;20.00
67182;DHT22;54114;53.524;49.396;2023-04-03T14:35:24;24.10;20.00
67182;DHT22;54114;53.524;49.396;2023-04-03T14:37:52;24.00;20.00
67182;DHT22;54114;53.524;49.396;2023-04-03T14:40:24;23.90;20.00
67182;DHT22;54114;53.524;49.396;2023-04-03T14:42:54;23.90;20.10
67182;DHT22;54114;53.524;49.396;2023-04-03T14:45:27;23.80;20.10
67182;DHT22;54114;53.524;49.396;2023-04-03T14:47:57;23.80;20.20
67182;DHT22;54114;53.524;49.396;2023-04-03T14:50:27;23.70;20.30
67182;DHT22;54114;53.524;49.396;2023-04-03T14:53:00;23.60;20.40
67182;DHT22;54114;53.524;49.396;2023-04-03T14:55:30;23.50;20.50
67182;DHT22;54114;53.524;49.396;2023-04-03T14:58:01;23.30;20.50
67182;DHT22;54114;53.524;49.396;2023-04-03T15:00:32;23.20;20.60
67182;DHT22;54114;53.524;49.396;2023-04-03T15:03:01;23.10;20.70
67182;DHT22;54114;53.524;49.396;2023-04-03T15:05:28;22.90;20.80
67182;DHT22;54114;53.524;49.396;2023-04-03T15:07:55;22.70;20.80
67182;DHT22;54114;53.524;49.396;2023-04-03T15:10:32;22.60;21.00
67182;DHT22;54114;53.524;49.396;2023-04-03T15:13:02;22.60;21.20
67182;DHT22;54114;53.524;49.396;2023-04-03T15:15:36;22.50;21.20
67182;DHT22;54114;53.524;49.396;2023-04-03T15:18:04;22.50;21.40
67182;DHT22;54114;53.524;49.396;2023-04-03T15:20:31;22.30;21.40
67182;DHT22;54114;53.524;49.396;2023-04-03T15:23:01;22.30;21.50
67182;DHT22;54114;53.524;49.396;2023-04-03T15:25:30;22.00;21.60
67182;DHT22;54114;53.524;49.396;2023-04-03T15:27:57;21.80;21.90
67182;DHT22;54114;53.524;49.396;2023-04-03T15:30:24;21.60;22.00
67182;DHT22;54114;53.524;49.396;2023-04-03T15:32:53;21.50;22.10
67182;DHT22;54114;53.524;49.396;2023-04-03T15:35:20;21.30;22.30
67182;DHT22;54114;53.524;49.396;2023-04-03T15:37:47;21.10;22.30
67182;DHT22;54114;53.524;49.396;2023-04-03T15:40:16;21.00;22.50
67182;DHT22;54114;53.524;49.396;2023-04-03T15:42:45;20.90;22.70
67182;DHT22;54114;53.524;49.396;2023-04-03T15:45:18;20.70;22.70
67182;DHT22;54114;53.524;49.396;2023-04-03T15:47:44;20.60;22.90
67182;DHT22;54114;53.524;49.396;2023-04-03T15:50:13;20.40;23.10
67182;DHT22;54114;53.524;49.396;2023-04-03T15:52:47;20.20;23.30
67182;DHT22;54114;53.524;49.396;2023-04-03T15:55:23;19.90;23.50
67182;DHT22;54114;53.524;49.396;2023-04-03T15:57:53;19.70;23.40
67182;DHT22;54114;53.524;49.396;2023-04-03T16:00:21;19.60;23.70
67182;DHT22;54114;53.524;49.396;2023-04-03T16:02:52;19.40;23.90
67182;DHT22;54114;53.524;49.396;2023-04-03T16:05:21;19.20;24.10
67182;DHT22;54114;53.524;49.396;2023-04-03T16:07:48;19.10;24.20
67182;DHT22;54114;53.524;49.396;2023-04-03T16:10:19;18.90;24.40
67182;DHT22;54114;53.524;49.396;2023-04-03T16:12:51;18.60;24.60
67182;DHT22;54114;53.524;49.396;2023-04-03T16:15:22;18.40;24.80
67182;DHT22;54114;53.524;49.396;2023-04-03T16:17:50;18.20;24.90
67182;DHT22;54114;53.524;49.396;2023-04-03T16:20:17;18.00;25.10
67182;DHT22;54114;53.524;49.396;2023-04-03T16:22:48;17.80;25.30
67182;DHT22;54114;53.524;49.396;2023-04-03T16:25:18;17.70;25.50
67182;DHT22;54114;53.524;49.396;2023-04-03T16:27:47;17.50;25.90
67182;DHT22;54114;53.524;49.396;2023-04-03T16:30:14;17.30;26.00
67182;DHT22;54114;53.524;49.396;2023-04-03T16:32:41;17.10;26.20
67182;DHT22;54114;53.524;49.396;2023-04-03T16:35:11;17.00;26.40
67182;DHT22;54114;53.524;49.396;2023-04-03T16:37:38;16.80;26.50
67182;DHT22;54114;53.524;49.396;2023-04-03T16:40:09;16.70;26.70
67182;DHT22;54114;53.524;49.396;2023-04-03T16:42:40;16.60;27.00
67182;DHT22;54114;53.524;49.396;2023-04-03T16:45:08;16.40;27.10
67182;DHT22;54114;53.524;49.396;2023-04-03T16:47:37;16.20;27.20
67182;DHT22;54114;53.524;49.396;2023-04-03T16:50:07;16.10;27.30
67182;DHT22;54114;53.524;49.396;2023-04-03T16:52:36;15.90;27.40
67182;DHT22;54114;53.524;49.396;2023-04-03T16:55:08;15.80;27.50
67182;DHT22;54114;53.524;49.396;2023-04-03T16:57:37;15.60;27.70
67182;DHT22;54114;53.524;49.396;2023-04-03T17:00:07;15.50;27.90
67182;DHT22;54114;53.524;49.396;2023-04-03T17:02:41;15.40;28.10
67182;DHT22;54114;53.524;49.396;2023-04-03T17:05:20;15.30;28.30
67182;DHT22;54114;53.524;49.396;2023-04-03T17:07:50;15.20;28.50
67182;DHT22;54114;53.524;49.396;2023-04-03T17:10:17;15.10;28.50
67182;DHT22;54114;53.524;49.396;2023-04-03T17:12:44;15.00;28.70
67182;DHT22;54114;53.524;49.396;2023-04-03T17:15:13;15.00;28.90
67182;DHT22;54114;53.524;49.396;2023-04-03T17:17:40;14.80;29.10
67182;DHT22;54114;53.524;49.396;2023-04-03T17:20:10;14.70;29.30